createdAt,value
2022-10-01T00:00:55.849Z,98177.63
2022-10-01T00:03:23.963Z,98179.63
2022-10-01T00:06:05.374Z,98181.69
2022-10-01T00:08:32.691Z,98187.77
2022-10-01T00:11:02.487Z,98189.46
2022-10-01T00:13:30.619Z,98187.75
2022-10-01T00:15:57.657Z,98184.18
2022-10-01T00:18:24.626Z,98182.39
2022-10-01T00:20:51.593Z,98178.90
2022-10-01T00:23:19.892Z,98174.44
2022-10-01T00:25:46.855Z,98173.64
2022-10-01T00:28:13.821Z,98166.00
2022-10-01T00:30:46.613Z,98159.24
2022-10-01T00:33:13.763Z,98158.30
2022-10-01T00:35:40.703Z,98159.55
2022-10-01T00:38:07.609Z,98162.60
2022-10-01T00:40:34.672Z,98159.27
2022-10-01T00:43:01.605Z,98169.58
2022-10-01T00:45:28.557Z,98169.61
2022-10-01T00:47:56.346Z,98171.70
2022-10-01T00:50:33.029Z,98174.02
2022-10-01T00:53:01.878Z,98181.25
2022-10-01T00:55:31.603Z,98186.29
2022-10-01T00:57:58.602Z,98190.86
2022-10-01T01:00:25.580Z,98189.47
2022-10-01T01:02:52.531Z,98192.11
2022-10-01T01:05:19.891Z,98191.67
2022-10-01T01:07:48.298Z,98202.55
2022-10-01T01:10:17.146Z,98188.80
2022-10-01T01:13:16.283Z,98180.56
2022-10-01T01:16:13.871Z,98178.25
2022-10-01T01:18:52.915Z,98180.16
2022-10-01T01:21:30.436Z,98178.40
2022-10-01T01:24:15.618Z,98172.72
2022-10-01T01:27:16.373Z,98170.75
2022-10-01T01:29:53.180Z,98176.36
2022-10-01T01:32:32.925Z,98173.36
2022-10-01T01:35:01.169Z,98170.66
2022-10-01T01:37:31.977Z,98171.92
2022-10-01T01:39:59.086Z,98169.52
2022-10-01T01:42:46.493Z,98169.60
2022-10-01T01:45:16.204Z,98173.09
2022-10-01T01:47:43.760Z,98175.76
2022-10-01T01:50:11.021Z,98177.98
2022-10-01T01:52:38.499Z,98180.11
2022-10-01T01:55:08.710Z,98174.15
2022-10-01T01:57:42.868Z,98176.22
2022-10-01T02:00:11.966Z,98176.79
2022-10-01T02:02:43.541Z,98178.05
2022-10-01T02:08:13.089Z,98178.63
2022-10-01T02:10:59.388Z,98183.92
2022-10-01T02:13:42.199Z,98190.47
2022-10-01T02:16:09.279Z,98192.20
2022-10-01T02:18:40.701Z,98192.55
2022-10-01T02:21:17.372Z,98192.80
2022-10-01T02:23:51.827Z,98184.17
2022-10-01T02:26:20.784Z,98188.05
2022-10-01T02:28:48.452Z,98189.56
2022-10-01T02:31:16.022Z,98186.03
2022-10-01T02:33:43.464Z,98185.17
2022-10-01T02:36:10.611Z,98185.25
2022-10-01T02:38:38.126Z,98182.48
2022-10-01T02:41:06.003Z,98179.73
2022-10-01T02:43:40.635Z,98184.34
2022-10-01T02:46:46.415Z,98182.05
2022-10-01T02:49:13.607Z,98188.05
2022-10-01T02:51:57.510Z,98190.17
2022-10-01T02:54:28.655Z,98190.41
2022-10-01T02:57:14.859Z,98188.20
2022-10-01T02:59:42.001Z,98182.13
2022-10-01T03:02:09.232Z,98178.89
2022-10-01T03:04:36.443Z,98176.48
2022-10-01T03:07:26.613Z,98178.31
2022-10-01T03:13:32.224Z,98177.30
2022-10-01T03:19:44.856Z,98163.14
2022-10-01T03:26:31.150Z,98148.23
2022-10-01T03:28:58.222Z,98147.63
2022-10-01T03:31:25.494Z,98146.83
2022-10-01T03:33:52.679Z,98149.77
2022-10-01T03:36:19.779Z,98149.79
2022-10-01T03:38:46.834Z,98146.27
2022-10-01T03:41:16.224Z,98143.66
2022-10-01T03:43:43.476Z,98153.13
2022-10-01T03:46:13.574Z,98153.39
2022-10-01T03:48:40.744Z,98150.80
2022-10-01T03:51:07.799Z,98149.92
2022-10-01T03:53:34.939Z,98153.02
2022-10-01T03:56:02.310Z,98153.67
2022-10-01T03:58:29.752Z,98142.46
2022-10-01T04:00:57.927Z,98142.26
2022-10-01T04:03:25.178Z,98155.02
2022-10-01T04:05:52.327Z,98168.97
2022-10-01T04:08:24.041Z,98182.91
2022-10-01T04:10:51.642Z,98186.59
2022-10-01T04:13:18.692Z,98187.34
2022-10-01T04:15:45.774Z,98189.68
2022-10-01T04:18:12.883Z,98185.09
2022-10-01T04:20:39.934Z,98193.19
2022-10-01T04:23:06.981Z,98191.79
2022-10-01T04:25:34.334Z,98189.41
2022-10-01T04:28:03.140Z,98189.41
2022-10-01T04:30:32.830Z,98197.15
2022-10-01T04:33:00.188Z,98185.02
2022-10-01T04:35:27.744Z,98188.02
2022-10-01T04:37:59.314Z,98192.33
2022-10-01T04:40:26.549Z,98197.17
2022-10-01T04:42:53.598Z,98195.62
2022-10-01T04:45:20.643Z,98193.86
2022-10-01T04:47:49.296Z,98188.48
2022-10-01T04:50:17.017Z,98187.25
2022-10-01T04:52:47.416Z,98184.36
2022-10-01T04:55:15.551Z,98188.35
2022-10-01T04:57:42.637Z,98190.48
2022-10-01T05:00:12.415Z,98183.61
2022-10-01T05:02:39.460Z,98167.96
2022-10-01T05:05:07.638Z,98180.80
2022-10-01T05:07:34.940Z,98185.13
2022-10-01T05:10:02.071Z,98180.73
2022-10-01T05:12:29.123Z,98180.34
2022-10-01T05:14:56.524Z,98175.23
2022-10-01T05:17:23.725Z,98174.87
2022-10-01T05:19:50.874Z,98179.38
2022-10-01T05:22:17.922Z,98189.77
2022-10-01T05:24:44.968Z,98198.23
2022-10-01T05:27:13.558Z,98189.96
2022-10-01T05:29:41.734Z,98195.38
2022-10-01T05:32:09.492Z,98200.81
2022-10-01T05:34:36.740Z,98205.38
2022-10-01T05:37:03.891Z,98205.52
2022-10-01T05:39:30.945Z,98207.34
2022-10-01T05:41:59.145Z,98208.61
2022-10-01T05:44:28.617Z,98213.80
2022-10-01T05:46:55.705Z,98219.59
2022-10-01T05:49:24.621Z,98208.38
2022-10-01T05:51:51.608Z,98200.15
2022-10-01T05:54:19.923Z,98202.88
2022-10-01T05:56:47.049Z,98192.11
2022-10-01T05:59:14.077Z,98183.77
2022-10-01T06:01:41.266Z,98176.34
2022-10-01T06:04:10.522Z,98178.32
2022-10-01T06:06:38.092Z,98178.76
2022-10-01T06:09:05.538Z,98178.90
2022-10-01T06:11:32.828Z,98190.88
2022-10-01T06:14:00.043Z,98187.36
2022-10-01T06:16:27.204Z,98178.67
2022-10-01T06:18:57.773Z,98182.15
2022-10-01T06:21:25.796Z,98178.02
2022-10-01T06:23:53.248Z,98170.94
2022-10-01T06:26:20.268Z,98175.45
2022-10-01T06:28:50.925Z,98169.75
2022-10-01T06:31:18.842Z,98167.68
2022-10-01T06:33:45.862Z,98169.75
2022-10-01T06:36:12.912Z,98171.02
2022-10-01T06:38:40.141Z,98175.53
2022-10-01T06:41:07.155Z,98180.73
2022-10-01T06:43:34.241Z,98184.90
2022-10-01T06:46:02.903Z,98179.70
2022-10-01T06:48:31.152Z,98177.21
2022-10-01T06:50:58.557Z,98171.38
2022-10-01T06:53:26.864Z,98168.98
2022-10-01T06:55:54.288Z,98161.67
2022-10-01T06:58:22.562Z,98156.83
2022-10-01T07:00:49.986Z,98168.95
2022-10-01T07:03:20.023Z,98168.11
2022-10-01T07:05:47.717Z,98138.98
2022-10-01T07:08:14.921Z,98135.60
2022-10-01T07:10:42.168Z,98149.20
2022-10-01T07:13:10.736Z,98145.83
2022-10-01T07:15:37.997Z,98130.09
2022-10-01T07:18:05.737Z,98127.70
2022-10-01T07:20:36.284Z,98125.16
2022-10-01T07:23:04.843Z,98133.86
2022-10-01T07:25:32.321Z,98124.98
2022-10-01T07:28:01.190Z,98122.30
2022-10-01T07:30:28.668Z,98130.27
2022-10-01T07:32:55.726Z,98127.45
2022-10-01T07:39:48.573Z,98129.45
2022-10-01T07:42:17.484Z,98116.03
2022-10-01T07:44:45.049Z,98124.26
2022-10-01T07:47:12.502Z,98120.66
2022-10-01T07:49:40.163Z,98100.25
2022-10-01T07:52:12.372Z,98105.23
2022-10-01T07:54:41.158Z,98122.86
2022-10-01T07:57:08.271Z,98109.41
2022-10-01T07:59:35.345Z,98106.60
2022-10-01T08:02:02.391Z,98118.21
2022-10-01T08:04:48.151Z,98121.23
2022-10-01T08:07:15.708Z,98112.69
2022-10-01T08:09:47.568Z,98107.94
2022-10-01T08:12:14.617Z,98110.02
2022-10-01T08:14:42.175Z,98106.01
2022-10-01T08:17:09.323Z,98108.08
2022-10-01T08:19:40.375Z,98106.67
2022-10-01T08:22:07.517Z,98103.71
2022-10-01T08:24:37.642Z,98107.94
2022-10-01T08:27:07.348Z,98108.31
2022-10-01T08:29:45.186Z,98110.56
2022-10-01T08:32:42.031Z,98118.44
2022-10-01T08:35:13.746Z,98129.48
2022-10-01T08:37:40.805Z,98144.80
2022-10-01T08:40:12.349Z,98151.73
2022-10-01T08:43:07.583Z,98143.57
2022-10-01T08:45:59.137Z,98133.60
2022-10-01T08:48:32.473Z,98119.64
2022-10-01T08:51:43.156Z,98123.44
2022-10-01T08:54:22.681Z,98125.29
2022-10-01T08:56:56.383Z,98127.76
2022-10-01T08:59:40.438Z,98129.25
2022-10-01T09:02:25.294Z,98131.32
2022-10-01T09:05:04.798Z,98143.84
2022-10-01T09:07:50.934Z,98139.94
2022-10-01T09:10:30.980Z,98135.48
2022-10-01T09:13:28.876Z,98141.16
2022-10-01T09:16:35.896Z,98144.42
2022-10-01T09:19:47.725Z,98141.70
2022-10-01T09:22:41.506Z,98144.77
2022-10-01T09:25:17.258Z,98141.30
2022-10-01T09:27:44.418Z,98138.62
2022-10-01T09:30:19.478Z,98138.16
2022-10-01T09:32:54.906Z,98133.59
2022-10-01T09:35:55.005Z,98137.30
2022-10-01T09:38:43.358Z,98137.69
2022-10-01T09:41:10.906Z,98129.73
2022-10-01T09:43:39.294Z,98126.76
2022-10-01T09:46:13.785Z,98123.14
2022-10-01T09:48:46.498Z,98112.90
2022-10-01T09:51:23.247Z,98112.66
2022-10-01T09:54:21.386Z,98109.25
2022-10-01T09:57:00.268Z,98109.30
2022-10-01T09:59:53.323Z,98100.30
2022-10-01T10:02:24.762Z,98095.84
2022-10-01T10:05:17.736Z,98098.88
2022-10-01T10:07:55.636Z,98089.14
2022-10-01T10:10:29.543Z,98089.31
2022-10-01T10:12:59.969Z,98088.17
2022-10-01T10:15:30.142Z,98087.80
2022-10-01T10:18:22.955Z,98089.73
2022-10-01T10:20:52.136Z,98089.19
2022-10-01T10:23:20.820Z,98086.98
2022-10-01T10:26:03.039Z,98088.75
2022-10-01T10:28:46.962Z,98083.77
2022-10-01T10:31:25.313Z,98070.45
2022-10-01T10:34:23.251Z,98067.33
2022-10-01T10:36:52.556Z,98056.73
2022-10-01T10:39:22.670Z,98050.75
2022-10-01T10:41:53.788Z,98049.60
2022-10-01T10:44:21.575Z,98059.22
2022-10-01T10:46:49.438Z,98054.41
2022-10-01T10:49:30.317Z,98051.08
2022-10-01T10:52:01.062Z,98041.65
2022-10-01T10:54:28.099Z,98032.96
2022-10-01T10:57:03.794Z,98027.00
2022-10-01T10:59:32.883Z,98025.08
2022-10-01T11:02:01.268Z,98018.60
2022-10-01T11:04:42.705Z,98010.13
2022-10-01T11:07:11.009Z,98007.48
2022-10-01T11:10:05.986Z,98010.45
2022-10-01T11:12:56.788Z,98010.49
2022-10-01T11:15:30.799Z,98012.77
2022-10-01T11:18:10.787Z,98003.57
2022-10-01T11:20:40.766Z,98004.73
2022-10-01T11:23:47.353Z,98005.90
2022-10-01T11:26:30.670Z,98001.63
2022-10-01T11:29:02.013Z,97991.17
2022-10-01T11:31:52.766Z,97990.41
2022-10-01T11:35:01.599Z,97985.04
2022-10-01T11:38:00.026Z,97974.45
2022-10-01T11:40:36.024Z,97966.27
2022-10-01T11:43:07.157Z,97966.81
2022-10-01T11:45:38.445Z,97966.14
2022-10-01T11:48:07.977Z,97962.59
2022-10-01T11:50:39.212Z,97955.04
2022-10-01T11:53:18.045Z,97947.21
2022-10-01T11:56:06.546Z,97945.77
2022-10-01T11:58:53.092Z,97943.97
2022-10-01T12:01:39.411Z,97945.02
2022-10-01T12:04:12.602Z,97953.23
2022-10-01T12:06:45.249Z,97945.90
2022-10-01T12:09:44.884Z,97936.81
2022-10-01T12:12:20.338Z,97932.71
2022-10-01T12:15:06.236Z,97934.34
2022-10-01T12:18:12.485Z,97933.20
2022-10-01T12:20:50.489Z,97923.10
2022-10-01T12:23:22.761Z,97924.59
2022-10-01T12:26:09.466Z,97920.71
2022-10-01T12:28:55.553Z,97916.14
2022-10-01T12:31:43.835Z,97912.98
2022-10-01T12:34:40.544Z,97908.39
2022-10-01T12:37:46.197Z,97904.23
2022-10-01T12:40:49.083Z,97902.23
2022-10-01T12:43:24.128Z,97895.71
2022-10-01T12:46:32.591Z,97897.98
2022-10-01T12:49:13.822Z,97891.56
2022-10-01T12:51:45.491Z,97880.71
2022-10-01T12:54:26.701Z,97875.08
2022-10-01T12:57:04.961Z,97880.80
2022-10-01T13:00:00.898Z,97877.02
2022-10-01T13:02:53.298Z,97872.13
2022-10-01T13:05:29.644Z,97868.17
2022-10-01T13:08:00.122Z,97852.99
2022-10-01T13:10:59.155Z,97851.98
2022-10-01T13:13:41.836Z,97850.71
2022-10-01T13:16:13.540Z,97846.36
2022-10-01T13:19:09.002Z,97841.64
2022-10-01T13:21:39.120Z,97836.89
2022-10-01T13:24:10.160Z,97828.20
2022-10-01T13:27:05.984Z,97832.27
2022-10-01T13:29:48.104Z,97829.79
2022-10-01T13:32:34.746Z,97825.34
2022-10-01T13:35:24.267Z,97819.73
2022-10-01T13:37:51.419Z,97813.05
2022-10-01T13:40:32.798Z,97803.70
2022-10-01T13:43:19.916Z,97794.44
2022-10-01T13:45:48.574Z,97790.33
2022-10-01T13:48:24.252Z,97792.26
2022-10-01T13:51:06.150Z,97789.59
2022-10-01T13:53:37.698Z,97780.91
2022-10-01T13:56:05.470Z,97777.48
2022-10-01T13:58:36.159Z,97765.66
2022-10-01T14:01:05.641Z,97754.15
2022-10-01T14:03:34.697Z,97750.66
2022-10-01T14:06:03.072Z,97744.63
2022-10-01T14:08:50.145Z,97749.95
2022-10-01T14:11:46.142Z,97754.25
2022-10-01T14:14:38.364Z,97755.21
2022-10-01T14:17:05.808Z,97751.23
2022-10-01T14:19:33.166Z,97748.48
2022-10-01T14:22:04.063Z,97744.42
2022-10-01T14:26:01.466Z,97750.05
2022-10-01T14:28:53.603Z,97744.62
2022-10-01T14:31:33.482Z,97733.45
2022-10-01T14:34:28.860Z,97729.00
2022-10-01T14:36:55.906Z,97733.27
2022-10-01T14:39:27.278Z,97735.48
2022-10-01T14:41:55.294Z,97740.39
2022-10-01T14:44:29.416Z,97737.27
2022-10-01T14:46:58.297Z,97736.56
2022-10-01T14:49:30.263Z,97734.27
2022-10-01T14:52:08.275Z,97732.58
2022-10-01T14:54:57.131Z,97732.17
2022-10-01T14:58:15.866Z,97719.80
2022-10-01T15:00:50.801Z,97716.69
2022-10-01T15:04:05.628Z,97712.76
2022-10-01T15:10:32.464Z,97703.95
2022-10-01T15:13:05.863Z,97694.14
2022-10-01T15:19:14.164Z,97691.00
2022-10-01T15:22:02.510Z,97679.51
2022-10-01T15:24:41.343Z,97675.31
2022-10-01T15:27:11.859Z,97669.46
2022-10-01T15:29:40.344Z,97665.01
2022-10-01T15:32:59.172Z,97661.77
2022-10-01T15:35:26.553Z,97659.66
2022-10-01T15:37:53.957Z,97661.98
2022-10-01T15:40:23.974Z,97663.10
2022-10-01T15:43:09.556Z,97663.92
2022-10-01T15:45:36.602Z,97668.52
2022-10-01T15:48:03.760Z,97664.43
2022-10-01T15:50:36.786Z,97668.20
2022-10-01T15:53:17.311Z,97671.23
2022-10-01T15:55:47.838Z,97669.67
2022-10-01T15:58:22.052Z,97662.86
2022-10-01T16:01:12.586Z,97658.05
2022-10-01T16:03:42.060Z,97656.40
2022-10-01T16:06:18.731Z,97655.54
2022-10-01T16:08:52.225Z,97652.00
2022-10-01T16:11:20.507Z,97651.36
2022-10-01T16:13:49.290Z,97647.71
2022-10-01T16:16:29.972Z,97640.71
2022-10-01T16:19:28.567Z,97634.16
2022-10-01T16:22:21.289Z,97636.25
2022-10-01T16:24:49.365Z,97629.88
2022-10-01T16:27:20.610Z,97623.05
2022-10-01T16:30:20.652Z,97622.04
2022-10-01T16:32:48.186Z,97621.48
2022-10-01T16:35:16.400Z,97618.38
2022-10-01T16:37:44.327Z,97615.47
2022-10-01T16:40:16.039Z,97613.56
2022-10-01T16:42:44.365Z,97616.43
2022-10-01T16:45:19.010Z,97612.88
2022-10-01T16:47:46.238Z,97610.91
2022-10-01T16:50:15.018Z,97609.54
2022-10-01T16:52:42.098Z,97607.79
2022-10-01T16:55:26.536Z,97612.05
2022-10-01T16:57:56.960Z,97610.39
2022-10-01T17:00:27.896Z,97603.34
2022-10-01T17:02:55.441Z,97601.83
2022-10-01T17:05:27.413Z,97605.73
2022-10-01T17:07:55.381Z,97617.69
2022-10-01T17:10:22.838Z,97619.68
2022-10-01T17:12:49.927Z,97618.89
2022-10-01T17:15:19.442Z,97618.64
2022-10-01T17:41:23.272Z,97579.85
2022-10-01T17:43:50.400Z,97579.71
2022-10-01T17:46:17.433Z,97574.66
2022-10-01T17:48:45.009Z,97569.52
2022-10-01T17:51:14.716Z,97564.70
2022-10-01T17:53:42.850Z,97564.19
2022-10-01T17:56:15.478Z,97555.34
2022-10-01T17:58:45.378Z,97555.21
2022-10-01T18:01:19.967Z,97548.98
2022-10-01T18:03:47.911Z,97544.35
2022-10-01T18:06:17.479Z,97539.71
2022-10-01T18:08:55.116Z,97542.52
2022-10-01T18:11:24.684Z,97539.98
2022-10-01T18:13:52.803Z,97540.72
2022-10-01T18:16:20.288Z,97538.61
2022-10-01T18:21:36.644Z,97528.00
2022-10-01T18:24:05.172Z,97520.80
2022-10-01T18:26:33.906Z,97510.66
2022-10-01T18:29:01.558Z,97509.98
2022-10-01T18:31:41.666Z,97508.40
2022-10-01T18:34:17.589Z,97496.27
2022-10-01T18:36:55.673Z,97485.14
2022-10-01T18:39:35.948Z,97482.39
2022-10-01T18:42:04.013Z,97477.67
2022-10-01T18:44:31.102Z,97471.70
2022-10-01T18:47:46.026Z,97467.41
2022-10-01T18:50:30.855Z,97457.05
2022-10-01T18:53:25.998Z,97446.77
2022-10-01T18:56:25.498Z,97442.80
2022-10-01T18:58:52.546Z,97443.71
2022-10-01T19:01:29.746Z,97446.04
2022-10-01T19:04:32.420Z,97437.56
2022-10-01T19:07:02.453Z,97437.14
2022-10-01T19:09:36.656Z,97440.39
2022-10-01T19:12:08.095Z,97433.53
2022-10-01T19:14:41.284Z,97426.18
2022-10-01T19:17:11.304Z,97419.76
2022-10-01T19:20:10.406Z,97415.45
2022-10-01T19:23:01.205Z,97406.23
2022-10-01T19:25:43.511Z,97402.70
2022-10-01T19:28:26.001Z,97403.88
2022-10-01T19:31:15.540Z,97401.15
2022-10-01T19:33:49.254Z,97397.76
2022-10-01T19:36:34.597Z,97395.69
2022-10-01T19:39:04.889Z,97395.27
2022-10-01T19:41:43.420Z,97384.96
2022-10-01T19:44:19.983Z,97381.61
2022-10-01T19:46:47.727Z,97381.16
2022-10-01T19:49:21.842Z,97387.20
2022-10-01T19:51:56.798Z,97385.57
2022-10-01T19:54:27.817Z,97380.67
2022-10-01T19:56:57.061Z,97379.04
2022-10-01T19:59:24.201Z,97370.95
2022-10-01T20:02:06.064Z,97368.05
2022-10-01T20:04:39.573Z,97367.46
2022-10-01T20:07:18.293Z,97364.84
2022-10-01T20:09:46.703Z,97360.74
2022-10-01T20:12:27.031Z,97353.50
2022-10-01T20:15:09.877Z,97349.80
2022-10-01T20:17:43.060Z,97344.05
2022-10-01T20:20:41.216Z,97340.86
2022-10-01T20:23:27.516Z,97343.48
2022-10-01T20:26:25.896Z,97336.73
2022-10-01T20:28:59.296Z,97331.89
2022-10-01T20:31:39.808Z,97326.73
2022-10-01T20:34:10.418Z,97322.96
2022-10-01T20:36:49.106Z,97319.25
2022-10-01T20:39:22.917Z,97314.43
2022-10-01T20:41:53.416Z,97310.30
2022-10-01T20:44:34.622Z,97314.55
2022-10-01T20:47:36.720Z,97317.25
2022-10-01T20:50:12.425Z,97317.02
2022-10-01T20:52:53.415Z,97314.16
2022-10-01T20:55:27.019Z,97308.91
2022-10-01T20:57:57.802Z,97307.48
2022-10-01T21:00:27.012Z,97308.20
2022-10-01T21:03:05.619Z,97310.42
2022-10-01T21:05:43.436Z,97314.39
2022-10-01T21:08:42.651Z,97309.22
2022-10-01T21:11:45.660Z,97303.35
2022-10-01T21:14:21.650Z,97299.27
2022-10-01T21:17:13.677Z,97296.94
2022-10-01T21:19:43.766Z,97292.07
2022-10-01T21:22:17.265Z,97292.09
2022-10-01T21:25:02.748Z,97288.91
2022-10-01T21:27:33.680Z,97284.14
2022-10-01T21:30:14.770Z,97281.17
2022-10-01T21:32:51.127Z,97284.50
2022-10-01T21:35:43.285Z,97278.73
2022-10-01T21:38:51.063Z,97275.28
2022-10-01T21:41:27.942Z,97269.52
2022-10-01T21:44:11.189Z,97266.52
2022-10-01T21:47:05.966Z,97262.61
2022-10-01T21:49:48.298Z,97263.58
2022-10-01T21:52:45.318Z,97261.95
2022-10-01T21:55:32.080Z,97255.02
2022-10-01T21:58:15.922Z,97248.46
2022-10-01T22:00:43.277Z,97247.10
2022-10-01T22:03:23.586Z,97249.76
2022-10-01T22:05:57.695Z,97249.79
2022-10-01T22:08:30.927Z,97245.27
2022-10-01T22:11:02.054Z,97243.33
2022-10-01T22:13:37.221Z,97238.16
2022-10-01T22:16:07.857Z,97237.17
2022-10-01T22:18:45.599Z,97241.79
2022-10-01T22:21:14.382Z,97242.19
2022-10-01T22:23:45.391Z,97240.38
2022-10-01T22:26:15.893Z,97234.86
2022-10-01T22:28:42.993Z,97236.58
2022-10-01T22:31:15.958Z,97235.82
2022-10-01T22:34:01.949Z,97238.45
2022-10-01T22:36:35.740Z,97234.96
2022-10-01T22:39:06.843Z,97237.90
2022-10-01T22:41:47.822Z,97241.61
2022-10-01T22:44:22.117Z,97246.63
2022-10-01T22:46:49.046Z,97250.46
2022-10-01T22:49:33.825Z,97245.39
2022-10-01T22:52:14.612Z,97249.39
2022-10-01T22:54:50.757Z,97255.58
2022-10-01T22:57:39.261Z,97257.61
2022-10-01T23:00:07.972Z,97269.46
2022-10-01T23:03:07.095Z,97279.83
2022-10-01T23:05:49.507Z,97278.94
2022-10-01T23:08:40.817Z,97284.19
2022-10-01T23:11:34.325Z,97295.53
2022-10-01T23:14:16.687Z,97298.58
2022-10-01T23:17:06.780Z,97299.43
2022-10-01T23:19:33.845Z,97297.16
2022-10-01T23:22:04.057Z,97288.26
2022-10-01T23:24:34.268Z,97281.78
2022-10-01T23:27:14.344Z,97286.56
2022-10-01T23:30:04.538Z,97289.36
2022-10-01T23:32:56.055Z,97283.51
2022-10-01T23:35:31.795Z,97259.70
2022-10-01T23:38:14.252Z,97277.73
2022-10-01T23:40:42.364Z,97301.29
2022-10-01T23:43:26.858Z,97319.21
2022-10-01T23:46:16.230Z,97313.89
2022-10-01T23:48:54.533Z,97295.46
2022-10-01T23:51:27.328Z,97292.34
2022-10-01T23:54:32.422Z,97253.41
2022-10-01T23:57:25.996Z,97229.59
2022-10-01T23:59:55.899Z,97245.72
